Time;durP1;ratioP1;P1;durP2;ratioP2;P2;SDS_P1;SDS_P2;PMS_P1;PMS_P2;Temp;Humidity;BMP_temperature;BMP_pressure;BME280_temperature;BME280_humidity;BME280_pressure;Samples;Min_cycle;Max_cycle;Signal;HPM_P1;HPM_P2
2020/12/30 00:02:02;;;;;;;4.50;2.87;;;5.50;4.40;;;;;;5075364;28;20183;-66
2020/12/30 00:04:28;;;;;;;4.17;3.20;;;5.50;26.50;;;;;;5075646;28;20536;-66
2020/12/30 00:06:53;;;;;;;4.87;4.07;;;5.60;20.50;;;;;;5075595;28;20521;-67
2020/12/30 00:09:19;;;;;;;4.57;3.77;;;5.60;52.90;;;;;;5075415;28;20557;-66
2020/12/30 00:11:44;;;;;;;6.20;4.10;;;5.50;46.90;;;;;;5075984;28;20611;-66
2020/12/30 00:14:10;;;;;;;6.10;3.60;;;5.40;59.00;;;;;;5075007;28;20532;-65
2020/12/30 00:16:35;;;;;;;7.33;4.03;;;5.50;99.90;;;;;;5074563;28;20514;-66
2020/12/30 00:19:01;;;;;;;6.10;3.70;;;5.40;99.90;;;;;;5075108;28;20191;-65
2020/12/30 00:21:27;;;;;;;3.60;3.07;;;5.30;99.90;;;;;;5075812;28;20168;-65
2020/12/30 00:23:52;;;;;;;3.83;3.03;;;5.30;99.90;;;;;;5075190;28;20202;-66
2020/12/30 00:26:19;;;;;;;10.23;3.70;;;5.30;99.90;;;;;;5075276;28;20199;-65
2020/12/30 00:28:45;;;;;;;5.80;3.63;;;5.30;99.90;;;;;;5075007;28;20681;-65
2020/12/30 00:31:10;;;;;;;4.60;3.55;;;5.30;99.90;;;;;;5074736;28;20265;-65
2020/12/30 00:33:36;;;;;;;9.87;3.90;;;5.30;99.90;;;;;;5074793;28;20164;-66
2020/12/30 00:36:02;;;;;;;10.03;4.30;;;5.30;99.90;;;;;;5075156;28;20169;-66
2020/12/30 00:38:28;;;;;;;4.27;3.63;;;5.10;99.90;;;;;;5074864;28;20430;-66
2020/12/30 00:40:53;;;;;;;7.10;3.70;;;5.20;99.90;;;;;;5074917;28;20471;-65
2020/12/30 00:43:19;;;;;;;5.23;4.03;;;5.00;99.90;;;;;;5075096;28;20183;-66
2020/12/30 00:45:44;;;;;;;6.13;3.80;;;5.10;99.90;;;;;;5074734;28;20191;-65
2020/12/30 00:48:10;;;;;;;5.20;3.57;;;5.10;99.90;;;;;;5074357;28;20172;-65
2020/12/30 00:50:35;;;;;;;6.77;3.90;;;5.30;99.90;;;;;;5074902;28;20229;-65
2020/12/30 00:53:01;;;;;;;5.17;4.10;;;5.30;99.90;;;;;;5074370;28;20172;-65
2020/12/30 00:55:26;;;;;;;4.70;3.60;;;5.60;99.90;;;;;;5074369;28;20160;-65
2020/12/30 00:57:52;;;;;;;6.33;4.07;;;5.60;99.90;;;;;;5074531;28;20192;-65
2020/12/30 01:00:18;;;;;;;4.57;3.73;;;5.40;99.90;;;;;;5074113;28;20191;-66
2020/12/30 01:02:43;;;;;;;4.30;3.00;;;5.40;99.90;;;;;;5074140;28;20275;-66
2020/12/30 01:05:09;;;;;;;6.63;3.67;;;5.40;99.90;;;;;;5074367;28;20172;-66
2020/12/30 01:07:34;;;;;;;5.00;3.60;;;5.50;99.90;;;;;;5074032;28;20175;-66
2020/12/30 01:10:00;;;;;;;6.03;4.13;;;5.60;99.90;;;;;;5073836;28;20207;-66
2020/12/30 01:12:25;;;;;;;5.37;4.10;;;5.60;99.90;;;;;;5073950;28;20566;-66
2020/12/30 01:14:51;;;;;;;4.93;4.10;;;5.60;99.90;;;;;;5074160;28;20175;-66
2020/12/30 01:17:16;;;;;;;8.40;4.77;;;5.70;99.90;;;;;;5073900;28;20663;-66
2020/12/30 01:19:42;;;;;;;6.40;3.63;;;5.60;99.90;;;;;;5074059;28;20184;-62
2020/12/30 01:22:07;;;;;;;4.30;3.13;;;5.50;99.90;;;;;;5073736;28;20282;-66
2020/12/30 01:24:33;;;;;;;4.97;4.00;;;5.50;99.90;;;;;;5073979;28;20168;-66
2020/12/30 01:26:59;;;;;;;4.13;3.67;;;5.60;99.90;;;;;;5073048;28;20175;-66
2020/12/30 01:29:24;;;;;;;6.57;4.50;;;5.50;99.90;;;;;;5073870;28;20192;-65
2020/12/30 01:31:50;;;;;;;5.03;3.67;;;5.60;99.90;;;;;;5073781;28;20203;-66
2020/12/30 01:34:15;;;;;;;6.70;4.30;;;5.50;99.90;;;;;;5073795;28;20245;-66
2020/12/30 01:36:41;;;;;;;6.93;3.50;;;5.50;99.90;;;;;;5073729;28;20164;-66
2020/12/30 01:39:07;;;;;;;6.40;3.80;;;5.60;99.90;;;;;;5072125;28;20203;-66
2020/12/30 01:41:33;;;;;;;6.87;3.70;;;5.40;99.90;;;;;;5073801;28;20168;-66
2020/12/30 01:44:07;;;;;;;5.77;3.57;;;5.40;99.90;;;;;;5073955;28;20279;-66
2020/12/30 01:46:47;;;;;;;7.95;3.40;;;5.40;99.90;;;;;;5074379;28;20405;-66
2020/12/30 01:49:19;;;;;;;7.30;4.57;;;5.40;99.90;;;;;;5073207;28;20203;-66
2020/12/30 01:51:45;;;;;;;5.32;4.18;;;5.40;99.90;;;;;;5073508;28;20188;-66
2020/12/30 01:54:13;;;;;;;5.30;3.60;;;5.40;99.90;;;;;;5073332;28;20186;-65
2020/12/30 01:56:39;;;;;;;5.85;3.63;;;5.40;99.90;;;;;;5073461;28;20171;-66
2020/12/30 01:59:10;;;;;;;4.15;3.75;;;5.40;99.90;;;;;;5073403;28;20195;-66
2020/12/30 02:01:37;;;;;;;5.30;3.53;;;5.50;99.90;;;;;;5073570;28;20156;-66
2020/12/30 02:04:05;;;;;;;4.57;3.38;;;5.50;99.90;;;;;;5073431;28;20168;-65
2020/12/30 02:06:32;;;;;;;5.05;3.67;;;5.30;99.90;;;;;;5073466;28;20254;-66
2020/12/30 02:08:58;;;;;;;4.47;3.60;;;5.30;99.90;;;;;;5073382;28;20275;-66
2020/12/30 02:11:25;;;;;;;5.30;3.97;;;5.40;99.90;;;;;;5073144;28;20564;-66
2020/12/30 02:14:05;;;;;;;6.63;3.42;;;5.40;99.90;;;;;;5073281;28;20167;-66
2020/12/30 02:16:32;;;;;;;5.90;3.60;;;5.40;99.90;;;;;;5073341;28;20624;-66
2020/12/30 02:18:59;;;;;;;4.72;4.00;;;5.30;99.90;;;;;;5073195;28;20230;-66
2020/12/30 02:21:25;;;;;;;7.05;3.42;;;5.30;99.90;;;;;;5072960;28;20231;-66
2020/12/30 02:23:54;;;;;;;4.43;3.47;;;5.30;99.90;;;;;;5073199;28;20176;-66
2020/12/30 02:26:19;;;;;;;4.50;3.50;;;5.40;99.90;;;;;;5073440;28;20528;-66
2020/12/30 02:28:45;;;;;;;6.70;4.23;;;5.50;99.90;;;;;;5072997;28;20188;-66
2020/12/30 02:31:10;;;;;;;5.77;3.60;;;5.50;99.90;;;;;;5073043;28;20192;-66
2020/12/30 02:33:36;;;;;;;4.17;3.43;;;5.50;99.90;;;;;;5072828;28;20183;-66
2020/12/30 02:36:02;;;;;;;6.77;3.30;;;5.60;99.90;;;;;;5072847;28;20179;-66
2020/12/30 02:38:27;;;;;;;22.83;5.10;;;5.50;99.90;;;;;;5074236;28;20168;-66
2020/12/30 02:40:53;;;;;;;6.07;4.13;;;5.50;99.90;;;;;;5076986;28;20203;-66
2020/12/30 02:43:18;;;;;;;6.43;3.60;;;5.70;99.90;;;;;;5076841;28;20176;-66
2020/12/30 02:45:44;;;;;;;7.30;3.97;;;5.60;99.90;;;;;;5076937;28;20167;-66
2020/12/30 02:48:09;;;;;;;9.87;3.93;;;5.50;99.90;;;;;;5076800;28;20195;-67
2020/12/30 02:50:35;;;;;;;6.03;4.40;;;5.50;99.90;;;;;;5076964;28;20223;-66
2020/12/30 02:53:00;;;;;;;6.43;4.30;;;5.50;99.90;;;;;;5076753;28;20658;-66
2020/12/30 02:55:26;;;;;;;7.90;5.40;;;5.40;99.90;;;;;;5076657;28;20168;-66
2020/12/30 02:57:52;;;;;;;6.40;4.63;;;5.50;99.90;;;;;;5076629;28;20533;-66
2020/12/30 03:00:17;;;;;;;4.57;3.80;;;5.40;99.90;;;;;;5076470;28;20660;-66
2020/12/30 03:02:43;;;;;;;9.23;5.20;;;5.40;99.90;;;;;;5076481;28;20251;-66
2020/12/30 03:05:08;;;;;;;7.27;4.73;;;5.30;99.90;;;;;;5076384;28;20176;-66
2020/12/30 03:07:34;;;;;;;6.60;4.23;;;5.20;1.00;;;;;;5076682;28;20259;-66
2020/12/30 03:09:59;;;;;;;6.50;4.63;;;5.20;99.90;;;;;;5076142;28;20191;-63
2020/12/30 03:12:25;;;;;;;5.47;3.90;;;5.30;1.00;;;;;;5076297;28;20172;-66
2020/12/30 03:14:50;;;;;;;7.50;4.40;;;5.30;1.00;;;;;;5076230;28;20328;-66
2020/12/30 03:17:16;;;;;;;6.33;4.50;;;5.30;1.00;;;;;;5076201;28;20570;-66
2020/12/30 03:19:41;;;;;;;5.17;4.67;;;5.30;99.90;;;;;;5076128;28;20192;-67
2020/12/30 03:22:07;;;;;;;10.87;4.53;;;5.20;1.00;;;;;;5076142;28;20243;-66
2020/12/30 03:24:32;;;;;;;6.20;4.17;;;5.20;1.00;;;;;;5076639;28;20175;-66
2020/12/30 03:26:58;;;;;;;5.00;4.40;;;5.20;1.00;;;;;;5075987;28;20169;-66
2020/12/30 03:29:23;;;;;;;7.57;5.20;;;5.30;1.00;;;;;;5075910;28;20195;-66
2020/12/30 03:31:49;;;;;;;9.10;6.03;;;5.50;1.00;;;;;;5075830;28;20196;-66
2020/12/30 03:34:15;;;;;;;8.20;4.90;;;5.50;99.90;;;;;;5076918;28;20172;-66
2020/12/30 03:36:40;;;;;;;8.97;5.00;;;5.50;99.90;;;;;;5075901;28;20168;-66
2020/12/30 03:39:06;;;;;;;5.77;4.80;;;5.40;99.90;;;;;;5075759;28;20184;-66
2020/12/30 03:41:31;;;;;;;7.63;4.57;;;5.40;99.90;;;;;;5075803;28;20168;-66
2020/12/30 03:43:57;;;;;;;5.30;4.37;;;5.40;99.90;;;;;;5075924;28;20165;-66
2020/12/30 03:46:23;;;;;;;6.93;4.10;;;5.40;99.90;;;;;;5075667;28;20171;-66
2020/12/30 03:48:48;;;;;;;7.53;4.83;;;5.20;99.90;;;;;;5075503;28;20576;-66
2020/12/30 03:51:14;;;;;;;8.97;4.37;;;5.10;1.00;;;;;;5074867;28;20782;-66
2020/12/30 03:53:40;;;;;;;6.27;5.17;;;5.10;1.00;;;;;;5076955;28;20168;-66
2020/12/30 03:56:05;;;;;;;7.13;4.90;;;5.30;1.00;;;;;;5076894;28;20536;-66
2020/12/30 03:58:31;;;;;;;4.70;3.93;;;5.40;1.00;;;;;;5075949;28;20177;-66
2020/12/30 04:00:56;;;;;;;5.27;4.20;;;5.30;99.90;;;;;;5075669;28;20243;-66
2020/12/30 04:03:22;;;;;;;8.37;5.37;;;5.10;1.00;;;;;;5075427;28;20180;-66
2020/12/30 04:05:51;;;;;;;5.37;4.40;;;5.20;1.00;;;;;;5075755;28;20179;-66
2020/12/30 04:08:17;;;;;;;6.55;4.55;;;5.20;1.00;;;;;;5075475;28;20188;-66
2020/12/30 04:10:43;;;;;;;8.32;4.43;;;4.90;1.00;;;;;;5075447;28;20188;-66
2020/12/30 04:13:08;;;;;;;8.40;5.03;;;5.10;80.20;;;;;;5075273;28;20256;-66
2020/12/30 04:15:34;;;;;;;6.40;4.53;;;5.20;1.00;;;;;;5075070;28;20176;-66
2020/12/30 04:17:59;;;;;;;7.10;4.53;;;5.30;1.00;;;;;;5075372;28;20171;-66
2020/12/30 04:20:25;;;;;;;6.83;4.67;;;5.30;1.00;;;;;;5074969;28;20197;-65
2020/12/30 04:22:50;;;;;;;6.10;5.07;;;5.20;1.00;;;;;;5075270;28;20217;-65
2020/12/30 04:25:16;;;;;;;7.37;4.60;;;5.20;99.90;;;;;;5075208;28;20510;-66
2020/12/30 04:27:41;;;;;;;5.73;4.83;;;5.10;1.00;;;;;;5074846;28;20164;-66
2020/12/30 04:30:07;;;;;;;5.73;4.30;;;5.20;1.00;;;;;;5074742;28;20206;-66
2020/12/30 04:32:33;;;;;;;6.83;4.53;;;5.20;1.00;;;;;;5075034;28;20176;-65
2020/12/30 04:34:58;;;;;;;7.37;5.10;;;5.30;1.00;;;;;;5074764;28;20168;-66
2020/12/30 04:37:24;;;;;;;6.33;4.60;;;5.10;99.90;;;;;;5074746;28;20168;-65
2020/12/30 04:39:49;;;;;;;5.60;4.60;;;5.10;1.00;;;;;;5074582;28;20191;-65
2020/12/30 04:42:33;;;;;;;8.70;5.50;;;5.10;1.00;;;;;;5074594;28;20200;-66
2020/12/30 04:45:06;;;;;;;11.23;5.03;;;5.10;1.00;;;;;;5074549;28;20155;-66
2020/12/30 04:47:32;;;;;;;8.07;5.28;;;5.10;1.00;;;;;;5074497;28;20157;-66
2020/12/30 04:49:59;;;;;;;7.88;4.93;;;5.20;1.00;;;;;;5074171;28;20204;-66
2020/12/30 04:52:26;;;;;;;8.95;5.00;;;5.30;1.00;;;;;;5074660;28;20249;-66
2020/12/30 04:54:52;;;;;;;6.63;4.75;;;5.20;1.00;;;;;;5075172;28;20640;-65
2020/12/30 04:57:59;;;;;;;7.20;4.53;;;5.20;1.00;;;;;;5074531;28;20176;-66
2020/12/30 05:00:25;;;;;;;6.45;4.53;;;5.20;1.00;;;;;;5074103;28;20517;-66
2020/12/30 05:02:52;;;;;;;6.73;5.43;;;5.20;1.00;;;;;;5074087;28;20247;-67
2020/12/30 05:05:19;;;;;;;7.85;4.60;;;5.10;1.00;;;;;;5074078;28;20381;-66
2020/12/30 05:07:45;;;;;;;7.25;6.15;;;5.10;1.00;;;;;;5074070;28;20534;-65
2020/12/30 05:10:15;;;;;;;7.28;4.90;;;5.00;1.00;;;;;;5073891;28;20857;-65
2020/12/30 05:12:41;;;;;;;7.57;5.75;;;5.00;1.00;;;;;;5074227;28;20172;-65
2020/12/30 05:15:06;;;;;;;5.68;4.32;;;4.80;99.90;;;;;;5074211;28;20195;-66
2020/12/30 05:17:33;;;;;;;6.83;4.97;;;4.80;1.00;;;;;;5073896;28;20337;-66
2020/12/30 05:19:59;;;;;;;6.78;5.22;;;5.00;1.00;;;;;;5072424;28;20227;-65
2020/12/30 05:22:25;;;;;;;8.20;5.23;;;4.80;1.00;;;;;;5073845;28;20192;-66
2020/12/30 05:24:50;;;;;;;8.33;5.67;;;4.80;1.00;;;;;;5073835;28;20652;-66
2020/12/30 05:27:17;;;;;;;8.20;5.27;;;4.90;1.00;;;;;;5073633;28;20167;-65
2020/12/30 05:29:51;;;;;;;7.95;4.90;;;4.90;1.00;;;;;;5073480;28;20237;-65
2020/12/30 05:32:19;;;;;;;7.35;5.90;;;4.90;1.00;;;;;;5074018;28;20158;-66
2020/12/30 05:34:46;;;;;;;9.30;5.15;;;4.90;1.00;;;;;;5073571;28;20211;-66
2020/12/30 05:37:13;;;;;;;8.55;5.43;;;5.00;1.00;;;;;;5073509;28;20172;-66
2020/12/30 05:39:39;;;;;;;8.57;5.43;;;5.10;1.00;;;;;;5073370;28;20180;-66
2020/12/30 05:42:20;;;;;;;8.00;5.67;;;5.10;1.00;;;;;;5073638;28;20203;-66
2020/12/30 05:44:48;;;;;;;6.85;5.30;;;4.90;1.00;;;;;;5073427;28;20160;-66
2020/12/30 05:47:22;;;;;;;9.98;5.82;;;5.00;1.00;;;;;;5073374;28;20164;-66
2020/12/30 05:49:50;;;;;;;13.48;6.25;;;5.00;1.00;;;;;;5073115;28;20207;-65
2020/12/30 05:52:21;;;;;;;8.75;5.63;;;4.90;1.00;;;;;;5073157;28;20176;-66
2020/12/30 05:54:48;;;;;;;8.05;5.90;;;4.90;1.00;;;;;;5073407;28;20247;-66
2020/12/30 05:57:30;;;;;;;7.38;6.00;;;4.90;1.00;;;;;;5073282;28;20168;-66
2020/12/30 06:00:10;;;;;;;8.23;5.97;;;5.00;1.00;;;;;;5073106;28;20258;-66
2020/12/30 06:02:42;;;;;;;7.03;5.80;;;4.90;1.00;;;;;;5073353;28;20159;-66
2020/12/30 06:05:16;;;;;;;8.63;5.55;;;5.10;1.00;;;;;;5073015;28;20672;-66
2020/12/30 06:07:46;;;;;;;7.38;5.43;;;5.10;1.00;;;;;;5073037;28;20175;-66
2020/12/30 06:10:16;;;;;;;9.55;6.10;;;4.90;1.00;;;;;;5072956;28;20218;-66
2020/12/30 06:12:48;;;;;;;8.98;5.40;;;4.90;1.00;;;;;;5072467;28;20149;-66
2020/12/30 06:15:20;;;;;;;7.72;5.93;;;4.80;1.00;;;;;;5073173;28;20190;-66
2020/12/30 06:18:00;;;;;;;6.72;6.05;;;4.90;1.00;;;;;;5072965;28;20206;-66
2020/12/30 06:20:33;;;;;;;8.77;6.13;;;5.00;1.00;;;;;;5073139;28;20202;-66
2020/12/30 06:23:00;;;;;;;7.45;5.30;;;5.10;1.00;;;;;;5072945;28;20179;-66
2020/12/30 06:25:27;;;;;;;7.78;5.30;;;4.90;1.00;;;;;;5072901;28;20592;-66
2020/12/30 06:27:54;;;;;;;8.23;4.95;;;4.90;1.00;;;;;;5072967;28;20583;-67
2020/12/30 06:30:20;;;;;;;10.63;5.80;;;4.70;1.00;;;;;;5072841;28;20253;-67
2020/12/30 06:32:46;;;;;;;7.75;5.32;;;4.60;10.40;;;;;;5073118;28;20250;-67
2020/12/30 06:35:12;;;;;;;7.10;5.23;;;4.60;1.00;;;;;;5072791;28;20265;-67
2020/12/30 06:37:41;;;;;;;8.07;6.15;;;4.60;89.80;;;;;;5072969;28;20412;-66
2020/12/30 06:40:21;;;;;;;10.55;5.55;;;4.80;1.00;;;;;;5073406;28;20188;-66
2020/12/30 06:42:49;;;;;;;7.53;5.93;;;4.80;1.00;;;;;;5073109;28;20172;-67
2020/12/30 06:45:35;;;;;;;9.02;5.47;;;4.80;1.00;;;;;;5072936;28;20172;-67
2020/12/30 06:48:01;;;;;;;10.30;7.07;;;4.90;1.00;;;;;;5072695;28;20180;-67
2020/12/30 06:50:27;;;;;;;6.00;5.40;;;4.80;99.90;;;;;;5072308;28;20688;-67
2020/12/30 06:52:52;;;;;;;8.80;7.00;;;4.70;1.00;;;;;;5072608;28;20164;-67
2020/12/30 06:55:38;;;;;;;8.90;6.13;;;4.70;1.00;;;;;;5072607;28;20467;-67
2020/12/30 06:58:03;;;;;;;7.57;6.20;;;4.60;1.00;;;;;;5072410;28;20172;-67
2020/12/30 07:00:34;;;;;;;9.93;6.07;;;4.70;1.00;;;;;;5072560;28;20287;-67
2020/12/30 07:03:17;;;;;;;8.77;5.50;;;4.60;1.00;;;;;;5072389;28;20172;-67
2020/12/30 07:05:44;;;;;;;8.27;6.53;;;4.80;1.00;;;;;;5072525;28;20156;-67
2020/12/30 07:08:10;;;;;;;7.68;5.43;;;5.00;1.00;;;;;;5072345;28;20222;-67
2020/12/30 07:10:45;;;;;;;7.93;5.80;;;4.90;99.90;;;;;;5072667;28;20257;-67
2020/12/30 07:13:27;;;;;;;8.50;5.10;;;4.70;99.90;;;;;;5072128;28;20168;-66
2020/12/30 07:16:12;;;;;;;10.73;5.90;;;4.60;1.00;;;;;;5072467;28;20255;-67
2020/12/30 07:18:38;;;;;;;10.25;6.57;;;4.70;99.90;;;;;;5072356;28;20188;-67
2020/12/30 07:21:15;;;;;;;9.57;5.70;;;4.80;99.90;;;;;;5072056;28;20198;-67
2020/12/30 07:23:45;;;;;;;8.73;5.25;;;4.70;99.90;;;;;;5072524;28;20420;-66
2020/12/30 07:26:16;;;;;;;8.60;5.68;;;4.60;1.00;;;;;;5074568;28;20188;-67
2020/12/30 07:28:43;;;;;;;8.65;5.97;;;4.60;1.00;;;;;;5075977;28;20740;-67
2020/12/30 07:31:09;;;;;;;12.07;6.50;;;4.60;99.90;;;;;;5075978;28;20664;-67
2020/12/30 07:33:37;;;;;;;12.60;6.68;;;4.60;99.90;;;;;;5076092;28;20715;-67
2020/12/30 07:36:12;;;;;;;9.15;6.82;;;4.80;99.90;;;;;;5075966;28;20605;-67
2020/12/30 07:38:38;;;;;;;9.07;6.40;;;4.80;99.90;;;;;;5076188;28;20612;-67
2020/12/30 07:41:19;;;;;;;9.23;5.70;;;4.80;99.90;;;;;;5075948;28;20195;-66
2020/12/30 07:43:48;;;;;;;8.82;6.35;;;4.60;99.90;;;;;;5075852;28;20362;-67
2020/12/30 07:46:19;;;;;;;8.45;6.07;;;4.50;1.00;;;;;;5076010;28;20168;-66
2020/12/30 07:48:44;;;;;;;7.25;5.50;;;4.40;98.00;;;;;;5075995;28;20233;-66
2020/12/30 07:51:10;;;;;;;8.67;5.93;;;4.70;1.00;;;;;;5075727;28;20187;-67
2020/12/30 07:53:35;;;;;;;9.87;6.67;;;4.70;99.90;;;;;;5075568;28;20533;-65
2020/12/30 07:56:01;;;;;;;7.97;6.00;;;4.80;99.90;;;;;;5075633;28;20248;-67
2020/12/30 07:58:28;;;;;;;11.63;7.93;;;4.90;99.90;;;;;;5075613;28;20200;-66
2020/12/30 08:00:54;;;;;;;10.20;7.00;;;5.10;99.90;;;;;;5075518;28;20172;-66
2020/12/30 08:03:21;;;;;;;11.20;8.13;;;5.00;99.90;;;;;;5076118;28;20176;-66
2020/12/30 08:05:49;;;;;;;8.98;6.90;;;5.20;99.90;;;;;;5076142;28;20385;-66
2020/12/30 08:08:17;;;;;;;6.63;5.85;;;5.30;99.90;;;;;;5075594;28;20168;-66
2020/12/30 08:10:48;;;;;;;11.10;6.88;;;5.20;99.90;;;;;;5073955;28;20285;-66
2020/12/30 08:13:15;;;;;;;10.90;6.65;;;5.30;99.90;;;;;;5075558;28;20214;-66
2020/12/30 08:15:52;;;;;;;11.05;6.68;;;5.20;99.90;;;;;;5075498;28;20249;-66
2020/12/30 08:18:18;;;;;;;8.05;5.97;;;5.30;99.90;;;;;;5075173;28;20148;-66
2020/12/30 08:20:43;;;;;;;10.65;6.90;;;5.10;99.90;;;;;;5075213;28;20637;-66
2020/12/30 08:23:09;;;;;;;11.37;6.80;;;5.20;99.90;;;;;;5075211;28;20187;-66
2020/12/30 08:25:34;;;;;;;12.03;6.70;;;5.20;99.90;;;;;;5075430;28;20629;-66
2020/12/30 08:28:05;;;;;;;10.37;6.83;;;5.10;99.90;;;;;;5074993;28;20183;-66
2020/12/30 08:30:34;;;;;;;8.60;6.15;;;5.20;99.90;;;;;;5074848;28;20546;-65
2020/12/30 08:33:09;;;;;;;8.65;6.50;;;5.20;99.90;;;;;;5075048;28;20172;-67
2020/12/30 08:35:43;;;;;;;11.88;8.55;;;5.40;99.90;;;;;;5074486;28;20214;-66
2020/12/30 08:38:11;;;;;;;12.32;6.88;;;5.20;99.90;;;;;;5074769;28;20228;-66
2020/12/30 08:40:38;;;;;;;11.45;7.55;;;5.40;99.90;;;;;;5075042;28;20175;-66
2020/12/30 08:43:20;;;;;;;11.15;6.75;;;5.20;99.90;;;;;;5074853;28;20233;-66
2020/12/30 08:45:48;;;;;;;12.65;7.00;;;5.10;99.90;;;;;;5074726;28;20167;-66
2020/12/30 08:48:19;;;;;;;15.65;8.65;;;5.30;99.90;;;;;;5074197;28;20247;-65
2020/12/30 08:50:45;;;;;;;8.63;7.03;;;5.40;99.90;;;;;;5074515;28;20200;-65
2020/12/30 08:53:12;;;;;;;11.93;8.38;;;5.20;99.90;;;;;;5074162;28;20556;-65
2020/12/30 08:55:38;;;;;;;11.90;8.63;;;5.20;99.90;;;;;;5074403;28;20176;-66
2020/12/30 08:58:04;;;;;;;13.43;8.88;;;5.20;99.90;;;;;;5074259;28;20338;-65
2020/12/30 09:00:36;;;;;;;11.07;8.10;;;5.50;99.90;;;;;;5073999;28;20223;-65
2020/12/30 09:03:14;;;;;;;13.13;7.53;;;5.60;99.90;;;;;;5074041;28;20651;-66
2020/12/30 09:05:40;;;;;;;9.25;6.53;;;5.60;99.90;;;;;;5074229;28;20175;-66
2020/12/30 09:08:13;;;;;;;8.90;6.30;;;5.50;99.90;;;;;;5072678;28;20205;-66
2020/12/30 09:10:39;;;;;;;13.85;5.75;;;5.40;99.90;;;;;;5073864;28;20294;-66
2020/12/30 09:13:19;;;;;;;7.90;6.30;;;5.40;99.90;;;;;;5074207;28;20210;-66
2020/12/30 09:15:48;;;;;;;10.88;6.15;;;5.50;99.90;;;;;;5074118;28;20183;-66
2020/12/30 09:18:14;;;;;;;10.80;6.75;;;5.60;99.90;;;;;;5073772;28;20228;-66
2020/12/30 09:20:41;;;;;;;9.13;5.80;;;5.60;99.90;;;;;;5073998;28;20263;-66
2020/12/30 09:23:08;;;;;;;9.65;5.95;;;5.30;99.90;;;;;;5073851;28;20407;-66
2020/12/30 09:25:38;;;;;;;10.90;5.68;;;5.40;99.90;;;;;;5073993;28;20172;-67
2020/12/30 09:28:23;;;;;;;10.90;6.32;;;5.50;99.90;;;;;;5074034;28;20243;-67
2020/12/30 09:30:54;;;;;;;6.60;5.40;;;5.40;99.90;;;;;;5073919;28;20187;-67
2020/12/30 09:33:24;;;;;;;8.40;5.57;;;5.20;99.90;;;;;;5073835;28;20160;-66
2020/12/30 09:35:50;;;;;;;8.18;5.25;;;5.30;99.90;;;;;;5073275;28;20175;-66
2020/12/30 09:38:18;;;;;;;7.15;6.45;;;5.40;99.90;;;;;;5073216;28;20176;-67
2020/12/30 09:40:46;;;;;;;7.82;5.72;;;5.40;99.90;;;;;;5073471;28;20176;-67
2020/12/30 09:43:23;;;;;;;9.25;5.80;;;5.40;99.90;;;;;;5072081;28;20223;-66
2020/12/30 09:45:55;;;;;;;11.63;6.75;;;5.30;99.90;;;;;;5073495;28;20160;-67
2020/12/30 09:48:20;;;;;;;13.98;6.32;;;5.20;99.90;;;;;;5072311;28;20239;-66
2020/12/30 09:50:48;;;;;;;10.73;6.13;;;5.40;99.90;;;;;;5073382;28;20721;-66
2020/12/30 09:53:14;;;;;;;6.82;4.65;;;5.60;99.90;;;;;;5073279;28;20241;-67
2020/12/30 09:55:44;;;;;;;9.10;5.50;;;5.50;99.90;;;;;;5072915;28;20176;-67
2020/12/30 09:58:09;;;;;;;6.53;4.85;;;5.30;99.90;;;;;;5073222;28;20384;-67
2020/12/30 10:00:35;;;;;;;8.93;5.83;;;5.50;99.90;;;;;;5073102;28;20255;-67
2020/12/30 10:03:01;;;;;;;6.87;4.47;;;5.40;99.90;;;;;;5071804;28;20180;-66
2020/12/30 10:05:26;;;;;;;7.50;5.13;;;5.60;99.90;;;;;;5072996;28;20168;-66
2020/12/30 10:07:52;;;;;;;9.30;5.83;;;5.50;99.90;;;;;;5073136;28;20199;-67
2020/12/30 10:10:17;;;;;;;8.40;5.90;;;5.40;99.90;;;;;;5072923;28;20672;-66
2020/12/30 10:12:43;;;;;;;6.67;4.80;;;5.60;99.90;;;;;;5073354;28;20164;-67
2020/12/30 10:15:10;;;;;;;6.20;4.80;;;5.50;99.90;;;;;;5072854;28;20533;-67
2020/12/30 10:17:36;;;;;;;5.05;4.55;;;5.70;99.90;;;;;;5073637;28;20176;-67
2020/12/30 10:20:04;;;;;;;5.67;4.33;;;5.80;99.90;;;;;;5073012;28;20187;-67
2020/12/30 10:22:31;;;;;;;8.35;5.40;;;5.70;99.90;;;;;;5072935;28;20414;-66
2020/12/30 10:24:57;;;;;;;7.90;5.03;;;5.70;99.90;;;;;;5073183;28;20510;-66
2020/12/30 10:27:23;;;;;;;5.40;4.15;;;5.80;99.90;;;;;;5071896;28;20179;-66
2020/12/30 10:29:48;;;;;;;6.67;5.23;;;5.70;99.90;;;;;;5072973;28;20184;-67
2020/12/30 10:32:14;;;;;;;7.97;5.43;;;5.70;99.90;;;;;;5073405;28;20287;-66
2020/12/30 10:34:40;;;;;;;7.30;5.27;;;5.80;99.90;;;;;;5072909;28;20168;-67
2020/12/30 10:37:06;;;;;;;8.83;5.07;;;5.80;99.90;;;;;;5072856;28;20168;-66
2020/12/30 10:39:32;;;;;;;8.85;5.43;;;5.60;99.90;;;;;;5072727;28;20283;-66
2020/12/30 10:41:59;;;;;;;7.13;4.63;;;5.80;99.90;;;;;;5073027;28;20255;-65
2020/12/30 10:44:25;;;;;;;7.85;5.82;;;5.70;99.90;;;;;;5072894;28;20414;-67
2020/12/30 10:46:52;;;;;;;6.28;5.05;;;5.80;99.90;;;;;;5072777;28;20195;-68
2020/12/30 10:49:18;;;;;;;6.18;5.05;;;5.90;99.90;;;;;;5072473;28;20253;-67
2020/12/30 10:51:48;;;;;;;8.50;5.50;;;6.00;96.50;;;;;;5072484;28;20199;-66
2020/12/30 10:54:16;;;;;;;6.10;4.60;;;5.70;99.90;;;;;;5072640;28;20418;-66
2020/12/30 10:56:49;;;;;;;6.93;5.18;;;5.80;99.90;;;;;;5072888;28;20176;-67
2020/12/30 10:59:15;;;;;;;8.13;5.38;;;6.00;99.90;;;;;;5072376;28;20203;-67
2020/12/30 11:01:40;;;;;;;7.22;5.38;;;6.00;59.50;;;;;;5076458;28;20176;-67
2020/12/30 11:04:06;;;;;;;6.97;5.37;;;6.00;99.90;;;;;;5076320;28;20171;-67
2020/12/30 11:06:32;;;;;;;7.50;6.00;;;6.00;99.90;;;;;;5076477;28;20529;-66
2020/12/30 11:08:57;;;;;;;7.47;5.00;;;6.00;91.00;;;;;;5076192;28;20580;-65
2020/12/30 11:11:23;;;;;;;9.20;5.93;;;6.10;59.80;;;;;;5076075;28;20210;-67
2020/12/30 11:13:48;;;;;;;7.43;5.00;;;6.30;62.10;;;;;;5075995;28;20165;-66
2020/12/30 11:16:14;;;;;;;6.60;5.20;;;6.20;43.60;;;;;;5076049;28;20640;-67
2020/12/30 11:18:39;;;;;;;8.70;5.23;;;6.20;19.20;;;;;;5075897;28;20548;-68
2020/12/30 11:21:05;;;;;;;8.00;5.87;;;6.00;24.60;;;;;;5076122;28;20196;-66
2020/12/30 11:23:31;;;;;;;11.43;6.47;;;6.40;48.40;;;;;;5076316;28;20175;-65
2020/12/30 11:25:56;;;;;;;9.10;5.40;;;6.40;3.60;;;;;;5076789;28;20182;-66
2020/12/30 11:28:22;;;;;;;7.20;5.33;;;6.20;1.00;;;;;;5076515;28;20176;-66
2020/12/30 11:30:47;;;;;;;7.33;5.87;;;6.10;1.00;;;;;;5075896;28;20192;-66
2020/12/30 11:33:13;;;;;;;7.93;5.40;;;6.30;1.00;;;;;;5075789;28;20221;-66
2020/12/30 11:35:39;;;;;;;10.67;6.10;;;6.30;1.00;;;;;;5075779;28;20254;-65
2020/12/30 11:38:05;;;;;;;8.30;5.83;;;6.40;1.00;;;;;;5076073;28;20164;-66
2020/12/30 11:40:31;;;;;;;9.43;5.75;;;6.30;1.00;;;;;;5075751;28;20184;-66
2020/12/30 11:42:56;;;;;;;7.53;5.13;;;6.20;1.00;;;;;;5075763;28;20264;-66
2020/12/30 11:45:22;;;;;;;9.43;5.00;;;6.20;1.00;;;;;;5075965;28;20175;-66
2020/12/30 11:47:48;;;;;;;10.40;5.83;;;6.30;1.00;;;;;;5057803;28;20229;-66
2020/12/30 11:50:14;;;;;;;8.20;6.00;;;6.30;1.00;;;;;;5075397;28;20218;-66
2020/12/30 11:52:43;;;;;;;8.82;5.60;;;6.40;1.00;;;;;;5075957;28;20204;-66
2020/12/30 11:55:10;;;;;;;9.75;5.63;;;6.30;1.00;;;;;;5075411;28;20510;-66
2020/12/30 11:57:35;;;;;;;8.95;5.28;;;6.20;1.00;;;;;;5075248;28;20168;-65
2020/12/30 12:00:05;;;;;;;12.97;5.90;;;6.20;1.00;;;;;;5075615;28;20190;-67
2020/12/30 12:02:31;;;;;;;12.63;6.15;;;6.30;1.00;;;;;;5075545;28;20385;-66
2020/12/30 12:04:59;;;;;;;10.53;6.50;;;6.60;1.00;;;;;;5075320;28;20684;-66
2020/12/30 12:07:24;;;;;;;9.82;5.13;;;6.50;1.00;;;;;;5075557;28;20183;-66
2020/12/30 12:09:50;;;;;;;11.23;7.47;;;6.90;1.00;;;;;;5075158;28;20184;-66
2020/12/30 12:12:15;;;;;;;9.27;6.50;;;6.80;1.00;;;;;;5074476;28;20208;-66
2020/12/30 12:14:41;;;;;;;8.47;6.20;;;7.00;1.00;;;;;;5075151;28;20290;-65
2020/12/30 12:17:07;;;;;;;13.50;6.67;;;7.00;1.00;;;;;;5074900;28;20487;-66
2020/12/30 12:19:32;;;;;;;11.90;6.67;;;7.00;1.00;;;;;;5074635;28;20184;-66
2020/12/30 12:21:58;;;;;;;11.37;6.83;;;7.10;1.00;;;;;;5075025;28;20529;-66
2020/12/30 12:24:23;;;;;;;11.97;7.13;;;6.90;1.00;;;;;;5075120;28;20546;-66
2020/12/30 12:26:49;;;;;;;10.20;6.80;;;6.70;1.00;;;;;;5074815;28;20176;-66
2020/12/30 12:29:37;;;;;;;11.10;6.57;;;6.70;1.00;;;;;;5074685;28;20200;-66
2020/12/30 12:32:04;;;;;;;9.63;6.30;;;6.70;1.00;;;;;;5074660;28;20200;-65
2020/12/30 12:34:30;;;;;;;8.70;6.68;;;7.10;1.00;;;;;;5074764;28;20176;-66
2020/12/30 12:36:55;;;;;;;12.63;7.90;;;7.00;1.00;;;;;;5074987;28;20170;-66
2020/12/30 12:39:21;;;;;;;9.00;5.87;;;6.90;1.00;;;;;;5074793;28;20780;-65
2020/12/30 12:41:51;;;;;;;9.25;6.57;;;6.80;1.00;;;;;;5075009;28;20221;-65
2020/12/30 12:44:17;;;;;;;10.68;6.55;;;6.50;1.00;;;;;;5074570;28;20199;-66
2020/12/30 12:46:44;;;;;;;12.73;7.47;;;6.70;1.00;;;;;;5074911;28;20172;-66
2020/12/30 12:49:10;;;;;;;11.68;7.60;;;6.70;1.00;;;;;;5074306;28;20412;-66
2020/12/30 12:51:37;;;;;;;8.43;6.87;;;6.60;1.00;;;;;;5074627;28;20191;-67
2020/12/30 12:54:05;;;;;;;10.35;6.25;;;6.70;1.00;;;;;;5074487;28;20389;-66
2020/12/30 12:56:31;;;;;;;14.85;6.25;;;6.60;1.00;;;;;;5074776;28;20175;-61
2020/12/30 12:58:57;;;;;;;11.32;7.13;;;6.60;1.00;;;;;;5074628;28;20557;-66
2020/12/30 13:01:23;;;;;;;10.63;6.40;;;6.80;1.00;;;;;;5074170;28;20175;-67
2020/12/30 13:03:49;;;;;;;9.80;6.77;;;6.70;1.00;;;;;;5074356;28;20164;-64